EST,Max TemperatureF,Mean TemperatureF,Min TemperatureF,Max Dew PointF,MeanDew PointF,Min DewpointF,Max Humidity, Mean Humidity, Min Humidity, Max Sea Level PressureIn, Mean Sea Level PressureIn, Min Sea Level PressureIn, Max VisibilityMiles, Mean VisibilityMiles, Min VisibilityMiles, Max Wind SpeedMPH, Mean Wind SpeedMPH, Max Gust SpeedMPH,PrecipitationIn, CloudCover, Events, WindDirDegrees
2012-11-1,46,44,40,42,37,34,93,75,67,29.49,29.46,29.43,10,10,5,14,6,18,0.00,7,Rain,173
2012-11-2,41,39,37,38,35,32,92,85,71,29.65,29.56,29.49,10,9,3,8,2,,0.00,8,Rain,252
2012-11-3,39,38,36,36,33,31,92,85,75,29.88,29.77,29.66,10,9,4,10,6,21,0.00,8,Rain,281
2012-11-4,37,35,34,33,28,24,86,73,65,30.01,29.96,29.88,10,10,10,9,6,18,0.00,8,,289
2012-11-5,36,32,27,24,20,14,72,61,48,30.14,30.07,30.01,10,10,7,8,3,,0.00,8,,315
2012-11-6,37,28,19,21,17,14,87,63,39,30.23,30.20,30.13,10,10,10,9,2,,0.00,1,,79
2012-11-7,36,28,19,22,19,15,86,67,47,30.22,30.14,30.05,10,10,10,12,6,20,0.00,0,,25
2012-11-8,36,32,27,28,24,18,78,70,65,30.04,30.00,29.95,10,10,10,16,9,23,0.00,5,,358
2012-11-9,43,34,24,32,25,21,90,70,44,30.11,30.04,29.97,10,10,10,8,2,,0.00,5,,301
2012-11-10,39,33,27,32,24,20,85,66,46,30.42,30.32,30.10,10,10,10,10,4,16,0.00,2,,352
2012-11-11,59,46,34,40,34,22,68,54,44,30.37,30.30,30.25,10,10,10,12,6,20,0.00,4,Rain,174
2012-11-12,69,62,56,48,40,36,61,45,36,30.25,30.14,29.95,10,10,10,26,14,40,0.00,0,,178
2012-11-13,62,44,27,51,31,22,93,71,48,30.49,30.28,29.94,10,9,2,22,7,33,0.00,5,Rain,267
2012-11-14,39,30,22,29,22,19,95,75,46,30.63,30.57,30.50,10,10,10,9,1,,0.00,0,,359
2012-11-15,34,27,20,26,22,18,94,84,68,30.54,30.44,30.35,10,10,7,6,0,,0.00,0,,322
2012-11-16,38,28,18,28,23,17,95,81,56,30.49,30.41,30.35,10,10,10,6,1,,0.00,2,,77
2012-11-17,36,29,22,29,22,17,91,76,45,30.70,30.63,30.50,10,10,10,7,2,,0.00,2,,7
2012-11-18,39,28,18,27,22,15,92,79,58,30.72,30.67,30.59,10,10,10,6,3,,0.00,0,,113
2012-11-19,46,34,22,31,24,19,91,76,48,30.59,30.44,30.28,10,10,10,8,3,,0.00,0,,141
2012-11-20,39,33,27,31,28,24,94,84,71,30.27,30.21,30.15,10,9,3,6,2,,0.00,2,,82
2012-11-21,48,38,27,34,28,24,96,80,45,30.25,30.21,30.17,10,7,2,6,1,,0.00,2,,154
2012-11-22,54,39,24,29,24,22,91,58,29,30.22,30.14,30.01,10,10,10,10,4,16,0.00,0,,176
2012-11-23,57,48,40,43,30,21,91,54,29,30.01,29.74,29.58,10,10,5,16,7,26,0.00,3,Rain,191
2012-11-24,41,34,27,38,24,16,91,66,54,29.66,29.58,29.54,10,10,3,16,7,28,0.00,8,Rain-Snow,257
2012-11-25,32,24,17,16,13,9,73,58,41,29.81,29.74,29.66,10,10,10,16,9,30,0.00,3,,274
2012-11-26,29,22,14,21,15,11,91,69,48,30.23,30.02,29.81,10,8,1,8,2,16,0.00,4,Snow,289
2012-11-27,32,23,14,24,18,11,93,80,68,30.29,30.26,30.23,10,10,10,6,2,,0.00,6,,116
2012-11-28,34,26,17,31,22,14,94,82,60,30.26,30.14,30.07,10,8,1,9,5,20,0.00,6,Snow,156
2012-11-29,34,26,17,29,18,6,91,75,62,30.34,30.17,30.03,10,8,2,13,5,21,0.00,8,Snow,284
2012-11-30,17,8,0,8,1,-3,86,71,55,30.60,30.54,30.36,10,10,4,12,4,17,0.00,1,Snow,28